sensor_id;sensor_type;location;lat;lon;timestamp;temperature;humidity
21047;DHT22;10682;50.874;3.656;2023-03-07T00:01:40;5.50;99.90
21047;DHT22;10682;50.874;3.656;2023-03-07T00:04:08;5.50;99.90
21047;DHT22;10682;50.874;3.656;2023-03-07T00:06:35;5.50;99.90
21047;DHT22;10682;50.874;3.656;2023-03-07T00:09:02;5.50;99.90
21047;DHT22;10682;50.874;3.656;2023-03-07T00:11:29;5.50;99.90
21047;DHT22;10682;50.874;3.656;2023-03-07T00:13:56;5.50;99.90
21047;DHT22;10682;50.874;3.656;2023-03-07T00:16:23;5.60;99.90
21047;DHT22;10682;50.874;3.656;2023-03-07T00:18:51;5.60;99.90
21047;DHT22;10682;50.874;3.656;2023-03-07T00:21:20;5.60;99.90
21047;DHT22;10682;50.874;3.656;2023-03-07T00:23:51;5.50;99.90
21047;DHT22;10682;50.874;3.656;2023-03-07T00:26:20;5.50;99.90
21047;DHT22;10682;50.874;3.656;2023-03-07T00:28:50;5.50;99.90
21047;DHT22;10682;50.874;3.656;2023-03-07T00:31:20;5.60;99.90
21047;DHT22;10682;50.874;3.656;2023-03-07T00:33:49;5.60;99.90
21047;DHT22;10682;50.874;3.656;2023-03-07T00:36:18;5.60;99.90
21047;DHT22;10682;50.874;3.656;2023-03-07T00:38:47;5.60;99.90
21047;DHT22;10682;50.874;3.656;2023-03-07T00:41:23;5.60;99.90
21047;DHT22;10682;50.874;3.656;2023-03-07T00:43:52;5.70;99.90
21047;DHT22;10682;50.874;3.656;2023-03-07T00:46:22;5.70;99.90
21047;DHT22;10682;50.874;3.656;2023-03-07T00:48:50;5.70;99.90
21047;DHT22;10682;50.874;3.656;2023-03-07T00:51:18;5.70;99.90
21047;DHT22;10682;50.874;3.656;2023-03-07T00:53:45;5.70;99.90
21047;DHT22;10682;50.874;3.656;2023-03-07T00:56:18;5.70;99.90
21047;DHT22;10682;50.874;3.656;2023-03-07T00:58:47;5.70;99.90
21047;DHT22;10682;50.874;3.656;2023-03-07T01:01:18;5.70;99.90
21047;DHT22;10682;50.874;3.656;2023-03-07T01:03:53;5.70;99.90
21047;DHT22;10682;50.874;3.656;2023-03-07T01:06:24;5.70;99.90
21047;DHT22;10682;50.874;3.656;2023-03-07T01:08:55;5.70;99.90
21047;DHT22;10682;50.874;3.656;2023-03-07T01:11:27;5.70;99.90
21047;DHT22;10682;50.874;3.656;2023-03-07T01:13:56;5.70;99.90
21047;DHT22;10682;50.874;3.656;2023-03-07T01:16:27;5.70;99.90
21047;DHT22;10682;50.874;3.656;2023-03-07T01:18:58;5.60;99.90
21047;DHT22;10682;50.874;3.656;2023-03-07T01:21:33;5.70;99.90
21047;DHT22;10682;50.874;3.656;2023-03-07T01:24:01;5.60;99.90
21047;DHT22;10682;50.874;3.656;2023-03-07T01:26:30;5.60;99.90
21047;DHT22;10682;50.874;3.656;2023-03-07T01:29:00;5.70;99.90
21047;DHT22;10682;50.874;3.656;2023-03-07T01:31:29;5.70;99.90
21047;DHT22;10682;50.874;3.656;2023-03-07T01:33:58;5.70;99.90
21047;DHT22;10682;50.874;3.656;2023-03-07T01:36:30;5.60;99.90
21047;DHT22;10682;50.874;3.656;2023-03-07T01:39:01;5.60;99.90
21047;DHT22;10682;50.874;3.656;2023-03-07T01:41:34;5.60;99.90
21047;DHT22;10682;50.874;3.656;2023-03-07T01:44:06;5.60;99.90
21047;DHT22;10682;50.874;3.656;2023-03-07T01:46:55;5.50;99.90
21047;DHT22;10682;50.874;3.656;2023-03-07T01:54:33;5.40;99.90
21047;DHT22;10682;50.874;3.656;2023-03-07T01:57:04;5.50;99.90
21047;DHT22;10682;50.874;3.656;2023-03-07T01:59:34;5.40;99.90
21047;DHT22;10682;50.874;3.656;2023-03-07T02:02:08;5.40;99.90
21047;DHT22;10682;50.874;3.656;2023-03-07T02:04:50;5.50;99.90
21047;DHT22;10682;50.874;3.656;2023-03-07T02:07:22;5.50;99.90
21047;DHT22;10682;50.874;3.656;2023-03-07T02:09:52;5.50;99.90
21047;DHT22;10682;50.874;3.656;2023-03-07T02:12:21;5.50;99.90
21047;DHT22;10682;50.874;3.656;2023-03-07T02:14:49;5.50;99.90
21047;DHT22;10682;50.874;3.656;2023-03-07T02:17:17;5.50;99.90
21047;DHT22;10682;50.874;3.656;2023-03-07T02:23:07;5.50;99.90
21047;DHT22;10682;50.874;3.656;2023-03-07T02:26:00;5.50;99.90
21047;DHT22;10682;50.874;3.656;2023-03-07T02:28:47;5.50;99.90
21047;DHT22;10682;50.874;3.656;2023-03-07T02:31:14;5.50;99.90
21047;DHT22;10682;50.874;3.656;2023-03-07T02:33:42;5.40;99.90
21047;DHT22;10682;50.874;3.656;2023-03-07T02:36:11;5.50;99.90
21047;DHT22;10682;50.874;3.656;2023-03-07T02:38:43;5.40;99.90
21047;DHT22;10682;50.874;3.656;2023-03-07T02:41:11;5.40;99.90
21047;DHT22;10682;50.874;3.656;2023-03-07T02:43:42;5.50;99.90
21047;DHT22;10682;50.874;3.656;2023-03-07T02:46:09;5.40;99.90
21047;DHT22;10682;50.874;3.656;2023-03-07T02:48:36;5.40;99.90
21047;DHT22;10682;50.874;3.656;2023-03-07T02:51:03;5.40;99.90
21047;DHT22;10682;50.874;3.656;2023-03-07T02:53:30;5.40;99.90
21047;DHT22;10682;50.874;3.656;2023-03-07T02:55:57;5.40;99.90
21047;DHT22;10682;50.874;3.656;2023-03-07T02:58:24;5.40;99.90
21047;DHT22;10682;50.874;3.656;2023-03-07T03:00:51;5.40;99.90
21047;DHT22;10682;50.874;3.656;2023-03-07T03:03:18;5.40;99.90
21047;DHT22;10682;50.874;3.656;2023-03-07T03:05:45;5.40;99.90
21047;DHT22;10682;50.874;3.656;2023-03-07T03:08:13;5.40;99.90
21047;DHT22;10682;50.874;3.656;2023-03-07T03:10:40;5.40;99.90
21047;DHT22;10682;50.874;3.656;2023-03-07T03:13:07;5.40;99.90
21047;DHT22;10682;50.874;3.656;2023-03-07T03:15:34;5.40;99.90
21047;DHT22;10682;50.874;3.656;2023-03-07T03:18:01;5.40;99.90
21047;DHT22;10682;50.874;3.656;2023-03-07T03:20:28;5.40;99.90
21047;DHT22;10682;50.874;3.656;2023-03-07T03:22:55;5.40;99.90
21047;DHT22;10682;50.874;3.656;2023-03-07T03:25:23;5.50;99.90
21047;DHT22;10682;50.874;3.656;2023-03-07T03:27:50;5.50;99.90
21047;DHT22;10682;50.874;3.656;2023-03-07T03:30:17;5.50;99.90
21047;DHT22;10682;50.874;3.656;2023-03-07T03:32:44;5.50;99.90
21047;DHT22;10682;50.874;3.656;2023-03-07T03:35:13;5.50;99.90
21047;DHT22;10682;50.874;3.656;2023-03-07T03:37:40;5.50;99.90
21047;DHT22;10682;50.874;3.656;2023-03-07T03:40:08;5.50;99.90
21047;DHT22;10682;50.874;3.656;2023-03-07T03:42:41;5.50;99.90
21047;DHT22;10682;50.874;3.656;2023-03-07T03:45:10;5.50;99.90
21047;DHT22;10682;50.874;3.656;2023-03-07T03:47:38;5.50;99.90
21047;DHT22;10682;50.874;3.656;2023-03-07T03:50:06;5.50;99.90
21047;DHT22;10682;50.874;3.656;2023-03-07T03:52:34;5.50;99.90
21047;DHT22;10682;50.874;3.656;2023-03-07T03:55:02;5.50;99.90
21047;DHT22;10682;50.874;3.656;2023-03-07T03:57:29;5.50;99.90
21047;DHT22;10682;50.874;3.656;2023-03-07T03:59:57;5.50;99.90
21047;DHT22;10682;50.874;3.656;2023-03-07T04:02:24;5.50;99.90
21047;DHT22;10682;50.874;3.656;2023-03-07T04:04:51;5.50;99.90
21047;DHT22;10682;50.874;3.656;2023-03-07T04:07:19;5.50;99.90
21047;DHT22;10682;50.874;3.656;2023-03-07T04:09:46;5.50;99.90
21047;DHT22;10682;50.874;3.656;2023-03-07T04:12:13;5.50;99.90
21047;DHT22;10682;50.874;3.656;2023-03-07T04:14:40;5.50;99.90
21047;DHT22;10682;50.874;3.656;2023-03-07T04:17:07;5.50;99.90
21047;DHT22;10682;50.874;3.656;2023-03-07T04:19:34;5.50;99.90
21047;DHT22;10682;50.874;3.656;2023-03-07T04:22:01;5.60;99.90
21047;DHT22;10682;50.874;3.656;2023-03-07T04:24:28;5.50;99.90
21047;DHT22;10682;50.874;3.656;2023-03-07T04:27:15;5.50;99.90
21047;DHT22;10682;50.874;3.656;2023-03-07T04:32:52;5.50;99.90
21047;DHT22;10682;50.874;3.656;2023-03-07T04:35:19;5.60;99.90
21047;DHT22;10682;50.874;3.656;2023-03-07T04:37:46;5.50;99.90
21047;DHT22;10682;50.874;3.656;2023-03-07T04:40:13;5.50;99.90
21047;DHT22;10682;50.874;3.656;2023-03-07T04:42:40;5.50;99.90
21047;DHT22;10682;50.874;3.656;2023-03-07T04:45:07;5.50;99.90
21047;DHT22;10682;50.874;3.656;2023-03-07T04:47:35;5.50;99.90
21047;DHT22;10682;50.874;3.656;2023-03-07T04:50:02;5.50;99.90
21047;DHT22;10682;50.874;3.656;2023-03-07T04:52:29;5.50;99.90
21047;DHT22;10682;50.874;3.656;2023-03-07T04:54:56;5.50;99.90
21047;DHT22;10682;50.874;3.656;2023-03-07T04:57:23;5.50;99.90
21047;DHT22;10682;50.874;3.656;2023-03-07T04:59:51;5.50;99.90
21047;DHT22;10682;50.874;3.656;2023-03-07T05:02:18;5.50;99.90
21047;DHT22;10682;50.874;3.656;2023-03-07T05:04:45;5.50;99.90
21047;DHT22;10682;50.874;3.656;2023-03-07T05:07:12;5.50;99.90
21047;DHT22;10682;50.874;3.656;2023-03-07T05:09:39;5.40;99.90
21047;DHT22;10682;50.874;3.656;2023-03-07T05:12:07;5.50;99.90
21047;DHT22;10682;50.874;3.656;2023-03-07T05:14:34;5.40;99.90
21047;DHT22;10682;50.874;3.656;2023-03-07T05:17:01;5.40;99.90
21047;DHT22;10682;50.874;3.656;2023-03-07T05:19:28;5.50;99.90
21047;DHT22;10682;50.874;3.656;2023-03-07T05:21:56;5.50;99.90
21047;DHT22;10682;50.874;3.656;2023-03-07T05:24:23;5.40;99.90
21047;DHT22;10682;50.874;3.656;2023-03-07T05:26:50;5.40;99.90
21047;DHT22;10682;50.874;3.656;2023-03-07T05:29:17;5.40;99.90
21047;DHT22;10682;50.874;3.656;2023-03-07T05:31:44;5.40;99.90
21047;DHT22;10682;50.874;3.656;2023-03-07T05:34:11;5.40;99.90
21047;DHT22;10682;50.874;3.656;2023-03-07T05:36:39;5.30;99.90
21047;DHT22;10682;50.874;3.656;2023-03-07T05:39:06;5.30;99.90
21047;DHT22;10682;50.874;3.656;2023-03-07T05:41:33;5.30;99.90
21047;DHT22;10682;50.874;3.656;2023-03-07T05:44:00;5.30;99.90
21047;DHT22;10682;50.874;3.656;2023-03-07T05:46:27;5.30;99.90
21047;DHT22;10682;50.874;3.656;2023-03-07T05:48:54;5.40;99.90
21047;DHT22;10682;50.874;3.656;2023-03-07T05:51:21;5.30;99.90
21047;DHT22;10682;50.874;3.656;2023-03-07T05:53:48;5.40;99.90
21047;DHT22;10682;50.874;3.656;2023-03-07T05:56:16;5.40;99.90
21047;DHT22;10682;50.874;3.656;2023-03-07T05:58:43;5.40;99.90
21047;DHT22;10682;50.874;3.656;2023-03-07T06:01:09;5.40;99.90
21047;DHT22;10682;50.874;3.656;2023-03-07T06:03:38;5.40;99.90
21047;DHT22;10682;50.874;3.656;2023-03-07T06:06:06;5.40;99.90
21047;DHT22;10682;50.874;3.656;2023-03-07T06:08:33;5.40;99.90
21047;DHT22;10682;50.874;3.656;2023-03-07T06:11:00;5.40;99.90
21047;DHT22;10682;50.874;3.656;2023-03-07T06:13:27;5.40;99.90
21047;DHT22;10682;50.874;3.656;2023-03-07T06:15:57;5.40;99.90
21047;DHT22;10682;50.874;3.656;2023-03-07T06:18:25;5.40;99.90
21047;DHT22;10682;50.874;3.656;2023-03-07T06:20:56;5.40;99.90
21047;DHT22;10682;50.874;3.656;2023-03-07T06:23:26;5.50;99.90
21047;DHT22;10682;50.874;3.656;2023-03-07T06:26:02;5.50;99.90
21047;DHT22;10682;50.874;3.656;2023-03-07T06:28:30;5.50;99.90
21047;DHT22;10682;50.874;3.656;2023-03-07T06:30:58;5.50;99.90
21047;DHT22;10682;50.874;3.656;2023-03-07T06:33:26;5.50;99.90
21047;DHT22;10682;50.874;3.656;2023-03-07T06:35:53;5.50;99.90
21047;DHT22;10682;50.874;3.656;2023-03-07T06:38:20;5.50;99.90
21047;DHT22;10682;50.874;3.656;2023-03-07T06:40:54;5.50;99.90
21047;DHT22;10682;50.874;3.656;2023-03-07T06:43:22;5.50;99.90
21047;DHT22;10682;50.874;3.656;2023-03-07T06:45:49;5.50;99.90
21047;DHT22;10682;50.874;3.656;2023-03-07T06:48:16;5.50;99.90
21047;DHT22;10682;50.874;3.656;2023-03-07T06:50:44;5.50;99.90
21047;DHT22;10682;50.874;3.656;2023-03-07T06:53:11;5.50;99.90
21047;DHT22;10682;50.874;3.656;2023-03-07T06:55:38;5.60;99.90
21047;DHT22;10682;50.874;3.656;2023-03-07T06:58:05;5.60;99.90
21047;DHT22;10682;50.874;3.656;2023-03-07T07:00:33;5.60;99.90
21047;DHT22;10682;50.874;3.656;2023-03-07T07:03:00;5.60;99.90
21047;DHT22;10682;50.874;3.656;2023-03-07T07:05:27;5.60;99.90
21047;DHT22;10682;50.874;3.656;2023-03-07T07:07:54;5.60;99.90
21047;DHT22;10682;50.874;3.656;2023-03-07T07:10:21;5.60;99.90
21047;DHT22;10682;50.874;3.656;2023-03-07T07:12:48;5.60;99.90
21047;DHT22;10682;50.874;3.656;2023-03-07T07:15:20;5.60;99.90
21047;DHT22;10682;50.874;3.656;2023-03-07T07:17:47;5.70;99.90
21047;DHT22;10682;50.874;3.656;2023-03-07T07:20:14;5.70;99.90
21047;DHT22;10682;50.874;3.656;2023-03-07T07:22:41;5.60;99.90
21047;DHT22;10682;50.874;3.656;2023-03-07T07:25:08;5.60;99.90
21047;DHT22;10682;50.874;3.656;2023-03-07T07:27:35;5.70;99.90
21047;DHT22;10682;50.874;3.656;2023-03-07T07:30:03;5.70;99.90
21047;DHT22;10682;50.874;3.656;2023-03-07T07:32:31;5.70;99.90
21047;DHT22;10682;50.874;3.656;2023-03-07T07:34:58;5.80;99.90
21047;DHT22;10682;50.874;3.656;2023-03-07T07:37:25;5.80;99.90
21047;DHT22;10682;50.874;3.656;2023-03-07T07:39:52;5.70;99.90
21047;DHT22;10682;50.874;3.656;2023-03-07T07:42:19;5.70;99.90
21047;DHT22;10682;50.874;3.656;2023-03-07T07:44:46;5.70;99.90
21047;DHT22;10682;50.874;3.656;2023-03-07T07:47:14;5.80;99.90
21047;DHT22;10682;50.874;3.656;2023-03-07T07:49:41;5.80;99.90
21047;DHT22;10682;50.874;3.656;2023-03-07T07:52:07;5.80;99.90
21047;DHT22;10682;50.874;3.656;2023-03-07T07:54:35;5.80;99.90
21047;DHT22;10682;50.874;3.656;2023-03-07T07:57:01;5.80;99.90
21047;DHT22;10682;50.874;3.656;2023-03-07T07:59:29;5.80;99.90
21047;DHT22;10682;50.874;3.656;2023-03-07T08:01:59;5.80;99.90
21047;DHT22;10682;50.874;3.656;2023-03-07T08:04:27;5.80;99.90
21047;DHT22;10682;50.874;3.656;2023-03-07T08:06:54;5.80;99.90
21047;DHT22;10682;50.874;3.656;2023-03-07T08:09:21;5.80;99.90
21047;DHT22;10682;50.874;3.656;2023-03-07T08:11:49;5.70;99.90
21047;DHT22;10682;50.874;3.656;2023-03-07T08:14:16;5.70;99.90
21047;DHT22;10682;50.874;3.656;2023-03-07T08:16:43;5.70;99.90
21047;DHT22;10682;50.874;3.656;2023-03-07T08:19:10;5.70;99.90
21047;DHT22;10682;50.874;3.656;2023-03-07T08:21:37;5.70;99.90
21047;DHT22;10682;50.874;3.656;2023-03-07T08:24:04;5.50;99.90
21047;DHT22;10682;50.874;3.656;2023-03-07T08:26:31;5.40;99.90
21047;DHT22;10682;50.874;3.656;2023-03-07T08:28:58;5.30;99.90
21047;DHT22;10682;50.874;3.656;2023-03-07T08:31:25;5.30;99.90
21047;DHT22;10682;50.874;3.656;2023-03-07T08:33:52;5.30;99.90
21047;DHT22;10682;50.874;3.656;2023-03-07T08:36:19;5.30;99.90
21047;DHT22;10682;50.874;3.656;2023-03-07T08:38:48;5.40;99.90
21047;DHT22;10682;50.874;3.656;2023-03-07T08:41:20;5.40;99.90
21047;DHT22;10682;50.874;3.656;2023-03-07T08:43:47;5.40;99.90
21047;DHT22;10682;50.874;3.656;2023-03-07T08:46:15;5.40;99.90
21047;DHT22;10682;50.874;3.656;2023-03-07T08:48:42;5.40;99.90
21047;DHT22;10682;50.874;3.656;2023-03-07T08:51:11;5.50;99.90
21047;DHT22;10682;50.874;3.656;2023-03-07T08:53:41;5.50;99.90
21047;DHT22;10682;50.874;3.656;2023-03-07T08:56:12;5.50;99.90
21047;DHT22;10682;50.874;3.656;2023-03-07T08:58:40;5.60;99.90
21047;DHT22;10682;50.874;3.656;2023-03-07T09:01:08;5.60;99.90
21047;DHT22;10682;50.874;3.656;2023-03-07T09:03:36;5.60;99.90
21047;DHT22;10682;50.874;3.656;2023-03-07T09:06:04;5.70;99.90
21047;DHT22;10682;50.874;3.656;2023-03-07T09:08:31;5.70;99.90
21047;DHT22;10682;50.874;3.656;2023-03-07T09:10:59;5.70;99.90
21047;DHT22;10682;50.874;3.656;2023-03-07T09:13:29;5.70;99.90
21047;DHT22;10682;50.874;3.656;2023-03-07T09:15:57;5.70;99.90
21047;DHT22;10682;50.874;3.656;2023-03-07T09:18:24;5.70;99.90
21047;DHT22;10682;50.874;3.656;2023-03-07T09:20:51;5.70;99.90
21047;DHT22;10682;50.874;3.656;2023-03-07T09:23:18;5.80;99.90
21047;DHT22;10682;50.874;3.656;2023-03-07T09:25:45;5.70;99.90
21047;DHT22;10682;50.874;3.656;2023-03-07T09:28:12;5.60;99.90
21047;DHT22;10682;50.874;3.656;2023-03-07T09:30:40;5.70;99.90
21047;DHT22;10682;50.874;3.656;2023-03-07T09:33:07;5.70;99.90
21047;DHT22;10682;50.874;3.656;2023-03-07T09:35:34;5.70;99.90
21047;DHT22;10682;50.874;3.656;2023-03-07T09:38:01;5.70;99.90
21047;DHT22;10682;50.874;3.656;2023-03-07T09:40:29;5.70;99.90
21047;DHT22;10682;50.874;3.656;2023-03-07T09:43:19;5.60;99.90
21047;DHT22;10682;50.874;3.656;2023-03-07T09:46:05;5.70;99.90
21047;DHT22;10682;50.874;3.656;2023-03-07T09:51:38;5.80;99.90
21047;DHT22;10682;50.874;3.656;2023-03-07T09:55:18;5.80;99.90
21047;DHT22;10682;50.874;3.656;2023-03-07T09:57:32;5.80;99.90
21047;DHT22;10682;50.874;3.656;2023-03-07T10:05:40;5.90;99.90
21047;DHT22;10682;50.874;3.656;2023-03-07T10:08:15;5.90;99.90
21047;DHT22;10682;50.874;3.656;2023-03-07T10:25:22;5.90;99.90
21047;DHT22;10682;50.874;3.656;2023-03-07T10:28:21;5.90;99.90
21047;DHT22;10682;50.874;3.656;2023-03-07T10:30:53;5.90;99.90
21047;DHT22;10682;50.874;3.656;2023-03-07T10:33:24;5.90;99.90
21047;DHT22;10682;50.874;3.656;2023-03-07T10:36:02;5.90;99.90
21047;DHT22;10682;50.874;3.656;2023-03-07T10:38:40;6.00;99.90
21047;DHT22;10682;50.874;3.656;2023-03-07T10:41:13;6.10;99.90
21047;DHT22;10682;50.874;3.656;2023-03-07T10:43:42;6.10;99.90
21047;DHT22;10682;50.874;3.656;2023-03-07T10:54:20;6.00;99.90
21047;DHT22;10682;50.874;3.656;2023-03-07T10:57:10;5.80;99.90
21047;DHT22;10682;50.874;3.656;2023-03-07T10:59:41;5.70;99.90
21047;DHT22;10682;50.874;3.656;2023-03-07T11:02:42;5.60;99.90
21047;DHT22;10682;50.874;3.656;2023-03-07T11:05:30;5.60;99.90
21047;DHT22;10682;50.874;3.656;2023-03-07T11:07:59;5.60;99.90
21047;DHT22;10682;50.874;3.656;2023-03-07T11:10:34;5.60;99.90
21047;DHT22;10682;50.874;3.656;2023-03-07T11:13:27;5.60;99.90
21047;DHT22;10682;50.874;3.656;2023-03-07T11:16:12;5.70;99.90
21047;DHT22;10682;50.874;3.656;2023-03-07T11:18:43;5.70;99.90
21047;DHT22;10682;50.874;3.656;2023-03-07T11:21:46;5.70;99.90
21047;DHT22;10682;50.874;3.656;2023-03-07T11:24:28;5.70;99.90
21047;DHT22;10682;50.874;3.656;2023-03-07T11:27:05;5.80;99.90
21047;DHT22;10682;50.874;3.656;2023-03-07T11:29:32;5.80;99.90
21047;DHT22;10682;50.874;3.656;2023-03-07T11:32:22;5.80;99.90
21047;DHT22;10682;50.874;3.656;2023-03-07T11:34:58;5.80;99.90
21047;DHT22;10682;50.874;3.656;2023-03-07T11:37:39;5.80;99.90
21047;DHT22;10682;50.874;3.656;2023-03-07T11:40:30;5.90;99.90
21047;DHT22;10682;50.874;3.656;2023-03-07T11:43:12;5.90;99.90
21047;DHT22;10682;50.874;3.656;2023-03-07T11:49:08;5.90;99.90
21047;DHT22;10682;50.874;3.656;2023-03-07T11:54:51;5.90;99.90
21047;DHT22;10682;50.874;3.656;2023-03-07T11:57:30;5.90;99.90
21047;DHT22;10682;50.874;3.656;2023-03-07T12:06:19;5.90;99.90
21047;DHT22;10682;50.874;3.656;2023-03-07T12:15:28;5.80;99.90
21047;DHT22;10682;50.874;3.656;2023-03-07T12:23:32;5.80;99.90
21047;DHT22;10682;50.874;3.656;2023-03-07T12:28:52;6.00;99.90
21047;DHT22;10682;50.874;3.656;2023-03-07T12:31:31;6.10;99.90
21047;DHT22;10682;50.874;3.656;2023-03-07T12:37:12;6.00;99.90
21047;DHT22;10682;50.874;3.656;2023-03-07T12:42:37;5.90;99.90
21047;DHT22;10682;50.874;3.656;2023-03-07T12:45:13;5.90;99.90
21047;DHT22;10682;50.874;3.656;2023-03-07T12:59:20;6.30;99.90
21047;DHT22;10682;50.874;3.656;2023-03-07T13:01:54;6.40;99.90
21047;DHT22;10682;50.874;3.656;2023-03-07T13:04:39;6.40;99.90
21047;DHT22;10682;50.874;3.656;2023-03-07T13:07:19;6.50;99.90
21047;DHT22;10682;50.874;3.656;2023-03-07T13:09:52;6.60;99.90
21047;DHT22;10682;50.874;3.656;2023-03-07T13:12:23;6.60;99.90
21047;DHT22;10682;50.874;3.656;2023-03-07T13:15:00;6.70;99.90
21047;DHT22;10682;50.874;3.656;2023-03-07T13:27:58;6.20;99.90
21047;DHT22;10682;50.874;3.656;2023-03-07T13:30:30;6.20;99.90
21047;DHT22;10682;50.874;3.656;2023-03-07T13:33:03;6.20;99.90
21047;DHT22;10682;50.874;3.656;2023-03-07T13:35:56;6.30;99.90
21047;DHT22;10682;50.874;3.656;2023-03-07T13:38:43;6.40;99.90
21047;DHT22;10682;50.874;3.656;2023-03-07T13:41:11;6.40;99.90
21047;DHT22;10682;50.874;3.656;2023-03-07T13:46:28;6.40;99.90
21047;DHT22;10682;50.874;3.656;2023-03-07T13:48:58;6.40;99.90
21047;DHT22;10682;50.874;3.656;2023-03-07T13:51:26;6.20;99.90
21047;DHT22;10682;50.874;3.656;2023-03-07T13:54:00;6.10;99.90
21047;DHT22;10682;50.874;3.656;2023-03-07T13:56:34;6.00;99.90
21047;DHT22;10682;50.874;3.656;2023-03-07T14:01:56;5.80;99.90
21047;DHT22;10682;50.874;3.656;2023-03-07T14:04:42;5.80;99.90
21047;DHT22;10682;50.874;3.656;2023-03-07T14:09:50;5.90;99.90
21047;DHT22;10682;50.874;3.656;2023-03-07T14:16:18;5.80;99.90
21047;DHT22;10682;50.874;3.656;2023-03-07T14:21:56;6.00;99.90
21047;DHT22;10682;50.874;3.656;2023-03-07T14:24:52;6.20;99.90
21047;DHT22;10682;50.874;3.656;2023-03-07T14:27:23;6.20;99.90
21047;DHT22;10682;50.874;3.656;2023-03-07T14:29:52;6.10;99.90
21047;DHT22;10682;50.874;3.656;2023-03-07T14:32:27;6.00;99.90
21047;DHT22;10682;50.874;3.656;2023-03-07T14:34:56;6.10;99.90
21047;DHT22;10682;50.874;3.656;2023-03-07T14:37:28;6.00;99.90
21047;DHT22;10682;50.874;3.656;2023-03-07T14:42:46;6.00;99.90
21047;DHT22;10682;50.874;3.656;2023-03-07T14:45:47;6.00;99.90
21047;DHT22;10682;50.874;3.656;2023-03-07T14:48:37;6.00;99.90
21047;DHT22;10682;50.874;3.656;2023-03-07T14:51:20;5.90;99.90
21047;DHT22;10682;50.874;3.656;2023-03-07T14:53:49;5.80;99.90
21047;DHT22;10682;50.874;3.656;2023-03-07T14:56:25;5.70;99.90
21047;DHT22;10682;50.874;3.656;2023-03-07T14:58:58;5.60;99.90
21047;DHT22;10682;50.874;3.656;2023-03-07T15:01:35;5.40;99.90
21047;DHT22;10682;50.874;3.656;2023-03-07T15:04:19;5.40;99.90
21047;DHT22;10682;50.874;3.656;2023-03-07T15:06:55;5.40;99.90
21047;DHT22;10682;50.874;3.656;2023-03-07T15:09:24;5.40;99.90
21047;DHT22;10682;50.874;3.656;2023-03-07T15:12:09;5.40;99.90
21047;DHT22;10682;50.874;3.656;2023-03-07T15:14:53;5.50;99.90
21047;DHT22;10682;50.874;3.656;2023-03-07T15:17:32;5.60;99.90
21047;DHT22;10682;50.874;3.656;2023-03-07T15:20:14;5.60;99.90
21047;DHT22;10682;50.874;3.656;2023-03-07T15:22:43;5.60;99.90
21047;DHT22;10682;50.874;3.656;2023-03-07T15:28:02;5.50;99.90
21047;DHT22;10682;50.874;3.656;2023-03-07T15:30:54;5.40;99.90
21047;DHT22;10682;50.874;3.656;2023-03-07T15:33:27;5.20;99.90
21047;DHT22;10682;50.874;3.656;2023-03-07T15:38:39;4.90;99.90
21047;DHT22;10682;50.874;3.656;2023-03-07T15:41:50;4.90;99.90
21047;DHT22;10682;50.874;3.656;2023-03-07T15:44:25;4.80;99.90
21047;DHT22;10682;50.874;3.656;2023-03-07T15:46:54;4.80;99.90
21047;DHT22;10682;50.874;3.656;2023-03-07T15:49:42;4.70;99.90
21047;DHT22;10682;50.874;3.656;2023-03-07T15:52:32;4.80;99.90
21047;DHT22;10682;50.874;3.656;2023-03-07T15:55:17;4.80;99.90
21047;DHT22;10682;50.874;3.656;2023-03-07T15:57:52;4.70;99.90
21047;DHT22;10682;50.874;3.656;2023-03-07T16:00:33;4.60;99.90
21047;DHT22;10682;50.874;3.656;2023-03-07T16:03:25;4.60;99.90
21047;DHT22;10682;50.874;3.656;2023-03-07T16:05:55;4.60;99.90
21047;DHT22;10682;50.874;3.656;2023-03-07T16:08:23;4.60;99.90
21047;DHT22;10682;50.874;3.656;2023-03-07T16:11:00;4.50;99.90
21047;DHT22;10682;50.874;3.656;2023-03-07T16:13:41;4.50;99.90
21047;DHT22;10682;50.874;3.656;2023-03-07T16:18:40;4.50;99.90
21047;DHT22;10682;50.874;3.656;2023-03-07T16:21:12;4.50;99.90
21047;DHT22;10682;50.874;3.656;2023-03-07T16:23:40;4.40;99.90
21047;DHT22;10682;50.874;3.656;2023-03-07T16:26:15;4.40;99.90
21047;DHT22;10682;50.874;3.656;2023-03-07T16:28:44;4.40;99.90
21047;DHT22;10682;50.874;3.656;2023-03-07T16:31:12;4.30;99.90
21047;DHT22;10682;50.874;3.656;2023-03-07T16:33:40;4.30;99.90
21047;DHT22;10682;50.874;3.656;2023-03-07T16:36:09;4.30;99.90
21047;DHT22;10682;50.874;3.656;2023-03-07T16:38:37;4.30;99.90
21047;DHT22;10682;50.874;3.656;2023-03-07T16:41:16;4.30;99.90
21047;DHT22;10682;50.874;3.656;2023-03-07T16:43:45;4.30;99.90
21047;DHT22;10682;50.874;3.656;2023-03-07T16:46:18;4.30;99.90
21047;DHT22;10682;50.874;3.656;2023-03-07T16:48:46;4.30;99.90
21047;DHT22;10682;50.874;3.656;2023-03-07T16:51:14;4.30;99.90
21047;DHT22;10682;50.874;3.656;2023-03-07T16:53:48;4.20;99.90
21047;DHT22;10682;50.874;3.656;2023-03-07T16:56:29;4.20;99.90
21047;DHT22;10682;50.874;3.656;2023-03-07T16:58:59;4.10;99.90
21047;DHT22;10682;50.874;3.656;2023-03-07T17:01:27;4.10;99.90
21047;DHT22;10682;50.874;3.656;2023-03-07T17:03:54;4.10;99.90
21047;DHT22;10682;50.874;3.656;2023-03-07T17:06:24;4.10;99.90
21047;DHT22;10682;50.874;3.656;2023-03-07T17:09:06;4.00;99.90
21047;DHT22;10682;50.874;3.656;2023-03-07T17:11:40;4.00;99.90
21047;DHT22;10682;50.874;3.656;2023-03-07T17:14:11;4.00;99.90
21047;DHT22;10682;50.874;3.656;2023-03-07T17:16:42;4.00;99.90
21047;DHT22;10682;50.874;3.656;2023-03-07T17:19:31;4.00;99.90
21047;DHT22;10682;50.874;3.656;2023-03-07T17:22:00;4.00;99.90
21047;DHT22;10682;50.874;3.656;2023-03-07T17:24:28;3.90;99.90
21047;DHT22;10682;50.874;3.656;2023-03-07T17:26:58;3.80;99.90
21047;DHT22;10682;50.874;3.656;2023-03-07T17:29:36;3.80;99.90
21047;DHT22;10682;50.874;3.656;2023-03-07T17:32:06;3.70;99.90
21047;DHT22;10682;50.874;3.656;2023-03-07T17:34:36;3.80;99.90
21047;DHT22;10682;50.874;3.656;2023-03-07T17:37:03;3.80;99.90
21047;DHT22;10682;50.874;3.656;2023-03-07T17:39:32;3.70;99.90
21047;DHT22;10682;50.874;3.656;2023-03-07T17:42:00;3.70;99.90
21047;DHT22;10682;50.874;3.656;2023-03-07T17:44:28;3.70;99.90
21047;DHT22;10682;50.874;3.656;2023-03-07T17:46:55;3.70;99.90
21047;DHT22;10682;50.874;3.656;2023-03-07T17:49:23;3.60;99.90
21047;DHT22;10682;50.874;3.656;2023-03-07T17:51:52;3.50;99.90
21047;DHT22;10682;50.874;3.656;2023-03-07T17:54:19;3.50;99.90
21047;DHT22;10682;50.874;3.656;2023-03-07T17:56:46;3.50;99.90
21047;DHT22;10682;50.874;3.656;2023-03-07T17:59:13;3.60;99.90
21047;DHT22;10682;50.874;3.656;2023-03-07T18:01:40;3.60;99.90
21047;DHT22;10682;50.874;3.656;2023-03-07T18:04:07;3.60;99.90
21047;DHT22;10682;50.874;3.656;2023-03-07T18:06:34;3.50;99.90
21047;DHT22;10682;50.874;3.656;2023-03-07T18:09:05;3.50;99.90
21047;DHT22;10682;50.874;3.656;2023-03-07T18:11:33;3.50;99.90
21047;DHT22;10682;50.874;3.656;2023-03-07T18:14:00;3.40;99.90
21047;DHT22;10682;50.874;3.656;2023-03-07T18:16:30;3.30;99.90